Crane Lake, Minnesota
Current Conditions -  °F | °C
As of 2:28 PM on Monday 22 Dec 2014 (Local Time) from KCDD Reporting Station
Drizzle Drizzle  
Wind Chill: 34°   Ceiling: 1100
Heat Index: 34°   Visibility: 7mi
Dew Point: 34°   Wind: 0mph
Humidity: 100%   Direction: NA
Pressure: 29.69"   Gusts: NA
Location:  48.27°N, 92.49°W
Report Text: KCDD 222028Z AUTO 00000KT 7SM DZ OVC011 01/01 A2969 RMK AO2
Loading
Personal Weather Stations






























Interactive Weather Map New forecast layout! Learn more

10-Day Weather Forecast

Advertisements
Track Severe Weather on mobile